sensor_id;sensor_type;location;lat;lon;timestamp;temperature;humidity
9215;DHT22;4642;51.364;6.788;2024-02-23T00:00:41;6.50;1.00
9215;DHT22;4642;51.364;6.788;2024-02-23T00:03:07;6.50;1.00
9215;DHT22;4642;51.364;6.788;2024-02-23T00:05:33;6.40;1.00
9215;DHT22;4642;51.364;6.788;2024-02-23T00:07:59;6.40;1.00
9215;DHT22;4642;51.364;6.788;2024-02-23T00:10:24;6.30;1.00
9215;DHT22;4642;51.364;6.788;2024-02-23T00:12:51;6.30;1.00
9215;DHT22;4642;51.364;6.788;2024-02-23T00:15:16;6.30;1.00
9215;DHT22;4642;51.364;6.788;2024-02-23T00:17:42;6.30;1.00
9215;DHT22;4642;51.364;6.788;2024-02-23T00:20:09;6.30;1.00
9215;DHT22;4642;51.364;6.788;2024-02-23T00:22:38;6.20;1.00
9215;DHT22;4642;51.364;6.788;2024-02-23T00:25:04;6.20;1.00
9215;DHT22;4642;51.364;6.788;2024-02-23T00:27:30;6.20;1.00
9215;DHT22;4642;51.364;6.788;2024-02-23T00:29:55;6.20;1.00
9215;DHT22;4642;51.364;6.788;2024-02-23T00:32:21;6.20;1.00
9215;DHT22;4642;51.364;6.788;2024-02-23T00:34:46;6.20;1.00
9215;DHT22;4642;51.364;6.788;2024-02-23T00:37:12;6.20;1.00
9215;DHT22;4642;51.364;6.788;2024-02-23T00:39:37;6.10;1.00
9215;DHT22;4642;51.364;6.788;2024-02-23T00:42:03;6.10;1.00
9215;DHT22;4642;51.364;6.788;2024-02-23T00:44:29;6.10;1.00
9215;DHT22;4642;51.364;6.788;2024-02-23T00:46:54;6.10;1.00
9215;DHT22;4642;51.364;6.788;2024-02-23T00:49:20;6.10;1.00
9215;DHT22;4642;51.364;6.788;2024-02-23T00:51:45;6.00;1.00
9215;DHT22;4642;51.364;6.788;2024-02-23T00:54:11;6.00;1.00
9215;DHT22;4642;51.364;6.788;2024-02-23T00:56:37;6.00;1.00
9215;DHT22;4642;51.364;6.788;2024-02-23T00:59:02;6.00;1.00
9215;DHT22;4642;51.364;6.788;2024-02-23T01:01:28;6.00;1.00
9215;DHT22;4642;51.364;6.788;2024-02-23T01:03:54;6.00;1.00
9215;DHT22;4642;51.364;6.788;2024-02-23T01:06:19;6.00;1.00
9215;DHT22;4642;51.364;6.788;2024-02-23T01:08:45;6.00;1.00
9215;DHT22;4642;51.364;6.788;2024-02-23T01:11:10;5.90;1.00
9215;DHT22;4642;51.364;6.788;2024-02-23T01:13:36;6.00;1.00
9215;DHT22;4642;51.364;6.788;2024-02-23T01:16:01;6.00;1.00
9215;DHT22;4642;51.364;6.788;2024-02-23T01:18:27;5.90;1.00
9215;DHT22;4642;51.364;6.788;2024-02-23T01:20:53;5.90;1.00
9215;DHT22;4642;51.364;6.788;2024-02-23T01:23:18;5.90;1.00
9215;DHT22;4642;51.364;6.788;2024-02-23T01:25:44;5.80;1.00
9215;DHT22;4642;51.364;6.788;2024-02-23T01:28:09;5.90;1.00
9215;DHT22;4642;51.364;6.788;2024-02-23T01:30:35;5.80;1.00
9215;DHT22;4642;51.364;6.788;2024-02-23T01:33:00;5.90;1.00
9215;DHT22;4642;51.364;6.788;2024-02-23T01:35:26;5.80;1.00
9215;DHT22;4642;51.364;6.788;2024-02-23T01:37:52;5.80;1.00
9215;DHT22;4642;51.364;6.788;2024-02-23T01:40:18;5.80;1.00
9215;DHT22;4642;51.364;6.788;2024-02-23T01:42:44;5.90;1.00
9215;DHT22;4642;51.364;6.788;2024-02-23T01:45:10;5.90;1.00
9215;DHT22;4642;51.364;6.788;2024-02-23T01:47:35;5.90;1.00
9215;DHT22;4642;51.364;6.788;2024-02-23T01:50:01;5.90;1.00
9215;DHT22;4642;51.364;6.788;2024-02-23T01:52:27;5.90;1.00
9215;DHT22;4642;51.364;6.788;2024-02-23T01:54:54;5.90;1.00
9215;DHT22;4642;51.364;6.788;2024-02-23T01:57:21;5.90;1.00
9215;DHT22;4642;51.364;6.788;2024-02-23T01:59:47;5.90;1.00
9215;DHT22;4642;51.364;6.788;2024-02-23T02:02:13;6.00;1.00
9215;DHT22;4642;51.364;6.788;2024-02-23T02:04:39;6.10;1.00
9215;DHT22;4642;51.364;6.788;2024-02-23T02:07:05;6.10;1.00
9215;DHT22;4642;51.364;6.788;2024-02-23T02:09:30;6.20;1.00
9215;DHT22;4642;51.364;6.788;2024-02-23T02:11:56;6.20;1.00
9215;DHT22;4642;51.364;6.788;2024-02-23T02:14:22;6.10;1.00
9215;DHT22;4642;51.364;6.788;2024-02-23T02:16:47;6.10;1.00
9215;DHT22;4642;51.364;6.788;2024-02-23T02:19:14;6.10;1.00
9215;DHT22;4642;51.364;6.788;2024-02-23T02:21:40;6.10;1.00
9215;DHT22;4642;51.364;6.788;2024-02-23T02:24:06;6.10;1.00
9215;DHT22;4642;51.364;6.788;2024-02-23T02:26:32;6.10;1.00
9215;DHT22;4642;51.364;6.788;2024-02-23T02:28:57;6.00;1.00
9215;DHT22;4642;51.364;6.788;2024-02-23T02:31:23;6.00;1.00
9215;DHT22;4642;51.364;6.788;2024-02-23T02:33:48;6.00;1.00
9215;DHT22;4642;51.364;6.788;2024-02-23T02:36:14;5.90;1.00
9215;DHT22;4642;51.364;6.788;2024-02-23T02:38:39;5.90;1.00
9215;DHT22;4642;51.364;6.788;2024-02-23T02:41:05;6.00;1.00
9215;DHT22;4642;51.364;6.788;2024-02-23T02:43:32;5.90;1.00
9215;DHT22;4642;51.364;6.788;2024-02-23T02:45:58;5.90;1.00
9215;DHT22;4642;51.364;6.788;2024-02-23T02:48:24;5.90;1.00
9215;DHT22;4642;51.364;6.788;2024-02-23T02:50:50;5.80;1.00
9215;DHT22;4642;51.364;6.788;2024-02-23T02:53:16;5.90;1.00
9215;DHT22;4642;51.364;6.788;2024-02-23T02:55:42;5.80;1.00
9215;DHT22;4642;51.364;6.788;2024-02-23T02:58:08;5.80;1.00
9215;DHT22;4642;51.364;6.788;2024-02-23T03:00:34;5.80;1.00
9215;DHT22;4642;51.364;6.788;2024-02-23T03:03:00;5.60;1.00
9215;DHT22;4642;51.364;6.788;2024-02-23T03:05:25;5.80;1.00
9215;DHT22;4642;51.364;6.788;2024-02-23T03:07:51;5.80;1.00
9215;DHT22;4642;51.364;6.788;2024-02-23T03:10:16;5.70;1.00
9215;DHT22;4642;51.364;6.788;2024-02-23T03:12:42;5.70;1.00
9215;DHT22;4642;51.364;6.788;2024-02-23T03:15:08;5.70;1.00
9215;DHT22;4642;51.364;6.788;2024-02-23T03:17:35;5.70;1.00
9215;DHT22;4642;51.364;6.788;2024-02-23T03:20:01;5.70;1.00
9215;DHT22;4642;51.364;6.788;2024-02-23T03:22:27;5.80;1.00
9215;DHT22;4642;51.364;6.788;2024-02-23T03:24:52;5.70;1.00
9215;DHT22;4642;51.364;6.788;2024-02-23T03:27:19;5.80;1.00
9215;DHT22;4642;51.364;6.788;2024-02-23T03:29:44;5.80;1.00
9215;DHT22;4642;51.364;6.788;2024-02-23T03:32:10;5.80;1.00
9215;DHT22;4642;51.364;6.788;2024-02-23T03:34:36;5.80;1.00
9215;DHT22;4642;51.364;6.788;2024-02-23T03:37:02;5.80;1.00
9215;DHT22;4642;51.364;6.788;2024-02-23T03:39:28;5.80;1.00
9215;DHT22;4642;51.364;6.788;2024-02-23T03:41:54;5.80;1.00
9215;DHT22;4642;51.364;6.788;2024-02-23T03:44:19;5.80;1.00
9215;DHT22;4642;51.364;6.788;2024-02-23T03:46:45;5.80;1.00
9215;DHT22;4642;51.364;6.788;2024-02-23T03:49:10;5.80;1.00
9215;DHT22;4642;51.364;6.788;2024-02-23T03:51:37;5.80;1.00
9215;DHT22;4642;51.364;6.788;2024-02-23T03:54:05;5.80;1.00
9215;DHT22;4642;51.364;6.788;2024-02-23T03:56:38;5.80;1.00
9215;DHT22;4642;51.364;6.788;2024-02-23T03:59:04;5.80;1.00
9215;DHT22;4642;51.364;6.788;2024-02-23T04:01:30;5.80;1.00
9215;DHT22;4642;51.364;6.788;2024-02-23T04:03:55;5.80;1.00
9215;DHT22;4642;51.364;6.788;2024-02-23T04:06:21;5.80;1.00
9215;DHT22;4642;51.364;6.788;2024-02-23T04:08:46;5.80;1.00
9215;DHT22;4642;51.364;6.788;2024-02-23T04:11:13;5.80;1.00
9215;DHT22;4642;51.364;6.788;2024-02-23T04:13:38;5.80;1.00
9215;DHT22;4642;51.364;6.788;2024-02-23T04:16:04;5.70;1.00
9215;DHT22;4642;51.364;6.788;2024-02-23T04:18:29;5.70;1.00
9215;DHT22;4642;51.364;6.788;2024-02-23T04:20:55;5.70;1.00
9215;DHT22;4642;51.364;6.788;2024-02-23T04:23:20;5.70;1.00
9215;DHT22;4642;51.364;6.788;2024-02-23T04:25:46;5.70;1.00
9215;DHT22;4642;51.364;6.788;2024-02-23T04:28:11;5.70;1.00
9215;DHT22;4642;51.364;6.788;2024-02-23T04:30:37;5.70;1.00
9215;DHT22;4642;51.364;6.788;2024-02-23T04:33:02;5.70;1.00
9215;DHT22;4642;51.364;6.788;2024-02-23T04:35:28;5.70;1.00
9215;DHT22;4642;51.364;6.788;2024-02-23T04:37:53;5.70;1.00
9215;DHT22;4642;51.364;6.788;2024-02-23T04:40:19;5.70;1.00
9215;DHT22;4642;51.364;6.788;2024-02-23T04:42:44;5.70;1.00
9215;DHT22;4642;51.364;6.788;2024-02-23T04:45:11;5.70;1.00
9215;DHT22;4642;51.364;6.788;2024-02-23T04:47:36;5.70;1.00
9215;DHT22;4642;51.364;6.788;2024-02-23T04:50:02;5.70;1.00
9215;DHT22;4642;51.364;6.788;2024-02-23T04:52:28;5.70;1.00
9215;DHT22;4642;51.364;6.788;2024-02-23T04:54:54;5.70;1.00
9215;DHT22;4642;51.364;6.788;2024-02-23T04:57:20;5.70;1.00
9215;DHT22;4642;51.364;6.788;2024-02-23T04:59:45;5.70;1.00
9215;DHT22;4642;51.364;6.788;2024-02-23T05:02:11;5.70;1.00
9215;DHT22;4642;51.364;6.788;2024-02-23T05:04:36;5.70;1.00
9215;DHT22;4642;51.364;6.788;2024-02-23T05:07:02;5.70;1.00
9215;DHT22;4642;51.364;6.788;2024-02-23T05:09:28;5.70;1.00
9215;DHT22;4642;51.364;6.788;2024-02-23T05:11:53;5.80;1.00
9215;DHT22;4642;51.364;6.788;2024-02-23T05:14:19;5.80;1.00
9215;DHT22;4642;51.364;6.788;2024-02-23T05:16:44;5.80;1.00
9215;DHT22;4642;51.364;6.788;2024-02-23T05:19:10;5.90;1.00
9215;DHT22;4642;51.364;6.788;2024-02-23T05:21:35;5.80;1.00
9215;DHT22;4642;51.364;6.788;2024-02-23T05:24:01;5.80;1.00
9215;DHT22;4642;51.364;6.788;2024-02-23T05:26:26;5.80;1.00
9215;DHT22;4642;51.364;6.788;2024-02-23T05:28:52;5.90;1.00
9215;DHT22;4642;51.364;6.788;2024-02-23T05:31:18;5.90;1.00
9215;DHT22;4642;51.364;6.788;2024-02-23T05:33:43;5.90;1.00
9215;DHT22;4642;51.364;6.788;2024-02-23T05:36:09;5.90;1.00
9215;DHT22;4642;51.364;6.788;2024-02-23T05:38:34;5.90;1.00
9215;DHT22;4642;51.364;6.788;2024-02-23T05:41:00;5.90;1.00
9215;DHT22;4642;51.364;6.788;2024-02-23T05:43:26;5.90;1.00
9215;DHT22;4642;51.364;6.788;2024-02-23T05:45:51;5.90;1.00
9215;DHT22;4642;51.364;6.788;2024-02-23T05:48:17;5.90;1.00
9215;DHT22;4642;51.364;6.788;2024-02-23T05:50:44;5.90;1.00
9215;DHT22;4642;51.364;6.788;2024-02-23T05:53:09;5.90;1.00
9215;DHT22;4642;51.364;6.788;2024-02-23T05:55:35;5.90;1.00
9215;DHT22;4642;51.364;6.788;2024-02-23T05:58:01;5.90;1.00
9215;DHT22;4642;51.364;6.788;2024-02-23T06:00:26;5.90;1.00
9215;DHT22;4642;51.364;6.788;2024-02-23T06:02:52;5.90;1.00
9215;DHT22;4642;51.364;6.788;2024-02-23T06:05:17;5.90;1.00
9215;DHT22;4642;51.364;6.788;2024-02-23T06:07:42;6.00;1.00
9215;DHT22;4642;51.364;6.788;2024-02-23T06:10:08;6.00;99.90
9215;DHT22;4642;51.364;6.788;2024-02-23T06:12:34;6.00;99.90
9215;DHT22;4642;51.364;6.788;2024-02-23T06:14:59;6.00;1.00
9215;DHT22;4642;51.364;6.788;2024-02-23T06:17:25;6.00;99.90
9215;DHT22;4642;51.364;6.788;2024-02-23T06:19:51;6.00;1.00
9215;DHT22;4642;51.364;6.788;2024-02-23T06:22:18;6.00;1.00
9215;DHT22;4642;51.364;6.788;2024-02-23T06:24:47;6.00;99.90
9215;DHT22;4642;51.364;6.788;2024-02-23T06:27:12;6.00;1.00
9215;DHT22;4642;51.364;6.788;2024-02-23T06:29:38;6.00;99.90
9215;DHT22;4642;51.364;6.788;2024-02-23T06:32:04;6.10;99.90
9215;DHT22;4642;51.364;6.788;2024-02-23T06:34:29;6.00;99.90
9215;DHT22;4642;51.364;6.788;2024-02-23T06:36:55;6.10;99.90
9215;DHT22;4642;51.364;6.788;2024-02-23T06:39:21;6.10;99.90
9215;DHT22;4642;51.364;6.788;2024-02-23T06:41:46;6.10;99.90
9215;DHT22;4642;51.364;6.788;2024-02-23T06:44:12;6.10;99.90
9215;DHT22;4642;51.364;6.788;2024-02-23T06:46:37;6.10;99.90
9215;DHT22;4642;51.364;6.788;2024-02-23T06:49:03;6.10;99.90
9215;DHT22;4642;51.364;6.788;2024-02-23T06:51:31;6.10;99.90
9215;DHT22;4642;51.364;6.788;2024-02-23T06:53:56;6.10;99.90
9215;DHT22;4642;51.364;6.788;2024-02-23T06:56:22;6.10;99.90
9215;DHT22;4642;51.364;6.788;2024-02-23T06:58:47;6.10;99.90
9215;DHT22;4642;51.364;6.788;2024-02-23T07:01:13;6.00;99.90
9215;DHT22;4642;51.364;6.788;2024-02-23T07:03:38;6.10;99.90
9215;DHT22;4642;51.364;6.788;2024-02-23T07:06:06;6.00;99.90
9215;DHT22;4642;51.364;6.788;2024-02-23T07:08:32;6.00;99.90
9215;DHT22;4642;51.364;6.788;2024-02-23T07:10:57;6.10;99.90
9215;DHT22;4642;51.364;6.788;2024-02-23T07:13:23;6.10;99.90
9215;DHT22;4642;51.364;6.788;2024-02-23T07:15:48;6.20;99.90
9215;DHT22;4642;51.364;6.788;2024-02-23T07:18:14;6.20;99.90
9215;DHT22;4642;51.364;6.788;2024-02-23T07:20:40;6.20;99.90
9215;DHT22;4642;51.364;6.788;2024-02-23T07:23:06;6.20;99.90
9215;DHT22;4642;51.364;6.788;2024-02-23T07:25:33;6.20;99.90
9215;DHT22;4642;51.364;6.788;2024-02-23T07:27:58;6.20;99.90
9215;DHT22;4642;51.364;6.788;2024-02-23T07:30:24;6.30;99.90
9215;DHT22;4642;51.364;6.788;2024-02-23T07:32:49;6.30;99.90
9215;DHT22;4642;51.364;6.788;2024-02-23T07:35:15;6.30;99.90
9215;DHT22;4642;51.364;6.788;2024-02-23T07:37:40;6.30;99.90
9215;DHT22;4642;51.364;6.788;2024-02-23T07:40:06;6.30;99.90
9215;DHT22;4642;51.364;6.788;2024-02-23T07:42:33;6.30;99.90
9215;DHT22;4642;51.364;6.788;2024-02-23T07:45:04;6.30;99.90
9215;DHT22;4642;51.364;6.788;2024-02-23T07:47:31;6.30;99.90
9215;DHT22;4642;51.364;6.788;2024-02-23T07:49:57;6.40;99.90
9215;DHT22;4642;51.364;6.788;2024-02-23T07:52:22;6.40;99.90
9215;DHT22;4642;51.364;6.788;2024-02-23T07:54:49;6.50;99.90
9215;DHT22;4642;51.364;6.788;2024-02-23T07:57:17;6.50;99.90
9215;DHT22;4642;51.364;6.788;2024-02-23T07:59:43;6.60;99.90
9215;DHT22;4642;51.364;6.788;2024-02-23T08:02:08;6.60;99.90
9215;DHT22;4642;51.364;6.788;2024-02-23T08:04:34;6.70;99.90
9215;DHT22;4642;51.364;6.788;2024-02-23T08:06:59;6.70;99.90
9215;DHT22;4642;51.364;6.788;2024-02-23T08:09:25;6.70;99.90
9215;DHT22;4642;51.364;6.788;2024-02-23T08:11:51;6.70;99.90
9215;DHT22;4642;51.364;6.788;2024-02-23T08:14:16;6.80;99.90
9215;DHT22;4642;51.364;6.788;2024-02-23T08:16:42;6.80;99.90
9215;DHT22;4642;51.364;6.788;2024-02-23T08:19:07;6.70;99.90
9215;DHT22;4642;51.364;6.788;2024-02-23T08:21:33;6.70;99.90
9215;DHT22;4642;51.364;6.788;2024-02-23T08:23:59;6.70;99.90
9215;DHT22;4642;51.364;6.788;2024-02-23T08:26:24;6.70;99.90
9215;DHT22;4642;51.364;6.788;2024-02-23T08:28:50;6.70;99.90
9215;DHT22;4642;51.364;6.788;2024-02-23T08:31:15;6.70;99.90
9215;DHT22;4642;51.364;6.788;2024-02-23T08:33:42;6.80;99.90
9215;DHT22;4642;51.364;6.788;2024-02-23T08:36:07;6.80;99.90
9215;DHT22;4642;51.364;6.788;2024-02-23T08:38:33;6.90;99.90
9215;DHT22;4642;51.364;6.788;2024-02-23T08:40:59;6.90;99.90
9215;DHT22;4642;51.364;6.788;2024-02-23T08:43:24;6.90;99.90
9215;DHT22;4642;51.364;6.788;2024-02-23T08:45:50;6.90;99.90
9215;DHT22;4642;51.364;6.788;2024-02-23T08:48:16;7.00;99.90
9215;DHT22;4642;51.364;6.788;2024-02-23T08:50:42;7.00;99.90
9215;DHT22;4642;51.364;6.788;2024-02-23T08:53:07;7.00;99.90
9215;DHT22;4642;51.364;6.788;2024-02-23T08:55:33;7.00;99.90
9215;DHT22;4642;51.364;6.788;2024-02-23T08:57:59;7.00;99.90
9215;DHT22;4642;51.364;6.788;2024-02-23T09:00:24;7.00;99.90
9215;DHT22;4642;51.364;6.788;2024-02-23T09:02:50;7.10;99.90
9215;DHT22;4642;51.364;6.788;2024-02-23T09:05:15;7.10;99.90
9215;DHT22;4642;51.364;6.788;2024-02-23T09:07:41;7.20;99.90
9215;DHT22;4642;51.364;6.788;2024-02-23T09:10:07;7.20;99.90
9215;DHT22;4642;51.364;6.788;2024-02-23T09:12:33;7.30;99.90
9215;DHT22;4642;51.364;6.788;2024-02-23T09:14:58;7.30;99.90
9215;DHT22;4642;51.364;6.788;2024-02-23T09:17:24;7.30;99.90
9215;DHT22;4642;51.364;6.788;2024-02-23T09:19:50;7.50;99.90
9215;DHT22;4642;51.364;6.788;2024-02-23T09:22:16;7.60;99.90
9215;DHT22;4642;51.364;6.788;2024-02-23T09:24:42;7.70;99.90
9215;DHT22;4642;51.364;6.788;2024-02-23T09:27:08;7.70;99.90
9215;DHT22;4642;51.364;6.788;2024-02-23T09:29:34;7.70;99.90
9215;DHT22;4642;51.364;6.788;2024-02-23T09:31:59;7.80;99.90
9215;DHT22;4642;51.364;6.788;2024-02-23T09:34:25;7.80;99.90
9215;DHT22;4642;51.364;6.788;2024-02-23T09:36:51;7.80;99.90
9215;DHT22;4642;51.364;6.788;2024-02-23T09:39:16;7.80;99.90
9215;DHT22;4642;51.364;6.788;2024-02-23T09:41:42;7.80;99.90
9215;DHT22;4642;51.364;6.788;2024-02-23T09:44:09;7.80;30.90
9215;DHT22;4642;51.364;6.788;2024-02-23T09:46:36;7.70;52.00
9215;DHT22;4642;51.364;6.788;2024-02-23T09:49:04;7.70;63.00
9215;DHT22;4642;51.364;6.788;2024-02-23T09:51:33;7.70;99.90
9215;DHT22;4642;51.364;6.788;2024-02-23T09:53:59;7.70;99.90
9215;DHT22;4642;51.364;6.788;2024-02-23T09:56:27;7.70;74.30
9215;DHT22;4642;51.364;6.788;2024-02-23T09:58:56;7.70;1.00
9215;DHT22;4642;51.364;6.788;2024-02-23T10:01:27;7.70;7.10
9215;DHT22;4642;51.364;6.788;2024-02-23T10:04:00;7.80;91.10
9215;DHT22;4642;51.364;6.788;2024-02-23T10:06:26;7.80;29.60
9215;DHT22;4642;51.364;6.788;2024-02-23T10:08:52;7.80;95.60
9215;DHT22;4642;51.364;6.788;2024-02-23T10:11:22;7.80;99.90
9215;DHT22;4642;51.364;6.788;2024-02-23T10:13:49;7.90;84.10
9215;DHT22;4642;51.364;6.788;2024-02-23T10:16:18;8.00;1.00
9215;DHT22;4642;51.364;6.788;2024-02-23T10:18:48;8.10;1.00
9215;DHT22;4642;51.364;6.788;2024-02-23T10:21:15;8.10;1.00
9215;DHT22;4642;51.364;6.788;2024-02-23T10:23:41;8.10;41.60
9215;DHT22;4642;51.364;6.788;2024-02-23T10:26:07;8.20;1.00
9215;DHT22;4642;51.364;6.788;2024-02-23T10:28:34;8.20;1.00
9215;DHT22;4642;51.364;6.788;2024-02-23T10:31:00;8.20;1.00
9215;DHT22;4642;51.364;6.788;2024-02-23T10:33:27;8.20;1.00
9215;DHT22;4642;51.364;6.788;2024-02-23T10:35:56;8.30;1.00
9215;DHT22;4642;51.364;6.788;2024-02-23T10:38:23;8.30;1.00
9215;DHT22;4642;51.364;6.788;2024-02-23T10:40:50;8.30;1.00
9215;DHT22;4642;51.364;6.788;2024-02-23T10:43:19;8.30;1.00
9215;DHT22;4642;51.364;6.788;2024-02-23T10:45:49;8.30;1.00
9215;DHT22;4642;51.364;6.788;2024-02-23T10:48:15;8.30;1.00
9215;DHT22;4642;51.364;6.788;2024-02-23T10:50:41;8.30;11.10
9215;DHT22;4642;51.364;6.788;2024-02-23T10:53:09;8.40;1.00
9215;DHT22;4642;51.364;6.788;2024-02-23T10:55:37;8.40;1.00
9215;DHT22;4642;51.364;6.788;2024-02-23T10:58:06;8.50;1.00
9215;DHT22;4642;51.364;6.788;2024-02-23T11:00:34;8.50;1.00
9215;DHT22;4642;51.364;6.788;2024-02-23T11:03:00;8.60;1.00
9215;DHT22;4642;51.364;6.788;2024-02-23T11:05:27;8.50;1.00
9215;DHT22;4642;51.364;6.788;2024-02-23T11:07:56;8.50;1.00
9215;DHT22;4642;51.364;6.788;2024-02-23T11:10:22;8.50;1.00
9215;DHT22;4642;51.364;6.788;2024-02-23T11:13:00;8.50;1.00
9215;DHT22;4642;51.364;6.788;2024-02-23T11:15:30;8.40;1.00
9215;DHT22;4642;51.364;6.788;2024-02-23T11:17:56;8.40;1.00
9215;DHT22;4642;51.364;6.788;2024-02-23T11:20:21;8.40;1.00
9215;DHT22;4642;51.364;6.788;2024-02-23T11:22:52;8.40;1.00
9215;DHT22;4642;51.364;6.788;2024-02-23T11:25:18;8.40;1.00
9215;DHT22;4642;51.364;6.788;2024-02-23T11:27:44;8.50;1.00
9215;DHT22;4642;51.364;6.788;2024-02-23T11:30:10;8.50;1.00
9215;DHT22;4642;51.364;6.788;2024-02-23T11:35:07;8.50;1.00
9215;DHT22;4642;51.364;6.788;2024-02-23T11:38:04;8.50;1.00
9215;DHT22;4642;51.364;6.788;2024-02-23T11:40:31;8.50;1.00
9215;DHT22;4642;51.364;6.788;2024-02-23T11:42:57;8.50;1.00
9215;DHT22;4642;51.364;6.788;2024-02-23T11:45:25;8.50;1.00
9215;DHT22;4642;51.364;6.788;2024-02-23T11:47:53;8.50;1.00
9215;DHT22;4642;51.364;6.788;2024-02-23T11:50:18;8.50;1.00
9215;DHT22;4642;51.364;6.788;2024-02-23T11:52:46;8.60;1.00
9215;DHT22;4642;51.364;6.788;2024-02-23T11:55:12;8.60;1.00
9215;DHT22;4642;51.364;6.788;2024-02-23T11:57:38;8.60;1.00
9215;DHT22;4642;51.364;6.788;2024-02-23T12:00:05;8.60;1.00
9215;DHT22;4642;51.364;6.788;2024-02-23T12:02:34;8.60;1.00
9215;DHT22;4642;51.364;6.788;2024-02-23T12:05:00;8.60;1.00
9215;DHT22;4642;51.364;6.788;2024-02-23T12:07:25;8.70;1.00
9215;DHT22;4642;51.364;6.788;2024-02-23T12:09:53;8.60;1.00
9215;DHT22;4642;51.364;6.788;2024-02-23T12:12:19;8.70;1.00
9215;DHT22;4642;51.364;6.788;2024-02-23T12:14:44;8.70;1.00
9215;DHT22;4642;51.364;6.788;2024-02-23T12:17:10;8.70;1.00
9215;DHT22;4642;51.364;6.788;2024-02-23T12:19:39;8.80;1.00
9215;DHT22;4642;51.364;6.788;2024-02-23T12:22:07;8.80;1.00
9215;DHT22;4642;51.364;6.788;2024-02-23T12:24:34;8.80;1.00
9215;DHT22;4642;51.364;6.788;2024-02-23T12:27:00;8.80;1.00
9215;DHT22;4642;51.364;6.788;2024-02-23T12:29:25;8.80;1.00
9215;DHT22;4642;51.364;6.788;2024-02-23T12:32:05;8.80;1.00
9215;DHT22;4642;51.364;6.788;2024-02-23T12:34:31;8.80;1.00
9215;DHT22;4642;51.364;6.788;2024-02-23T12:36:57;8.80;1.00
9215;DHT22;4642;51.364;6.788;2024-02-23T12:39:22;8.80;1.00
9215;DHT22;4642;51.364;6.788;2024-02-23T12:41:48;8.80;1.00
9215;DHT22;4642;51.364;6.788;2024-02-23T12:44:13;8.80;1.00
9215;DHT22;4642;51.364;6.788;2024-02-23T12:46:39;8.90;1.00
9215;DHT22;4642;51.364;6.788;2024-02-23T12:49:05;9.00;1.00
9215;DHT22;4642;51.364;6.788;2024-02-23T12:51:31;9.00;1.00
9215;DHT22;4642;51.364;6.788;2024-02-23T12:53:56;9.10;1.00
9215;DHT22;4642;51.364;6.788;2024-02-23T12:56:22;9.10;1.00
9215;DHT22;4642;51.364;6.788;2024-02-23T12:58:48;9.20;1.00
9215;DHT22;4642;51.364;6.788;2024-02-23T13:01:13;9.20;1.00
9215;DHT22;4642;51.364;6.788;2024-02-23T13:03:39;9.20;1.00
9215;DHT22;4642;51.364;6.788;2024-02-23T13:06:08;9.20;1.00
9215;DHT22;4642;51.364;6.788;2024-02-23T13:08:34;9.20;1.00
9215;DHT22;4642;51.364;6.788;2024-02-23T13:11:00;9.10;1.00
9215;DHT22;4642;51.364;6.788;2024-02-23T13:13:25;9.10;1.00
9215;DHT22;4642;51.364;6.788;2024-02-23T13:15:52;9.10;1.00
9215;DHT22;4642;51.364;6.788;2024-02-23T13:18:18;9.10;1.00
9215;DHT22;4642;51.364;6.788;2024-02-23T13:20:47;9.10;1.00
9215;DHT22;4642;51.364;6.788;2024-02-23T13:23:12;9.10;1.00
9215;DHT22;4642;51.364;6.788;2024-02-23T13:25:39;9.10;1.00
9215;DHT22;4642;51.364;6.788;2024-02-23T13:28:05;9.20;1.00
9215;DHT22;4642;51.364;6.788;2024-02-23T13:30:35;9.20;1.00
9215;DHT22;4642;51.364;6.788;2024-02-23T13:33:01;9.20;1.00
9215;DHT22;4642;51.364;6.788;2024-02-23T13:35:27;9.20;1.00
9215;DHT22;4642;51.364;6.788;2024-02-23T13:37:52;9.20;1.00
9215;DHT22;4642;51.364;6.788;2024-02-23T13:40:18;9.20;1.00
9215;DHT22;4642;51.364;6.788;2024-02-23T13:42:44;9.30;1.00
9215;DHT22;4642;51.364;6.788;2024-02-23T13:45:15;9.30;1.00
9215;DHT22;4642;51.364;6.788;2024-02-23T13:47:42;9.30;1.00
9215;DHT22;4642;51.364;6.788;2024-02-23T13:50:08;9.40;99.90
9215;DHT22;4642;51.364;6.788;2024-02-23T13:52:34;9.30;1.00
9215;DHT22;4642;51.364;6.788;2024-02-23T13:55:00;9.30;1.00
9215;DHT22;4642;51.364;6.788;2024-02-23T13:57:26;9.40;1.00
9215;DHT22;4642;51.364;6.788;2024-02-23T13:59:51;9.40;1.00
9215;DHT22;4642;51.364;6.788;2024-02-23T14:02:24;9.40;1.00
9215;DHT22;4642;51.364;6.788;2024-02-23T14:04:50;9.50;1.00
9215;DHT22;4642;51.364;6.788;2024-02-23T14:07:16;9.50;1.00
9215;DHT22;4642;51.364;6.788;2024-02-23T14:09:42;9.60;1.00
9215;DHT22;4642;51.364;6.788;2024-02-23T14:12:08;9.60;1.00
9215;DHT22;4642;51.364;6.788;2024-02-23T14:14:33;9.60;1.00
9215;DHT22;4642;51.364;6.788;2024-02-23T14:16:59;9.70;1.00
9215;DHT22;4642;51.364;6.788;2024-02-23T14:19:24;9.80;1.00
9215;DHT22;4642;51.364;6.788;2024-02-23T14:21:51;9.80;1.00
9215;DHT22;4642;51.364;6.788;2024-02-23T14:24:17;9.80;1.00
9215;DHT22;4642;51.364;6.788;2024-02-23T14:26:42;9.90;99.90
9215;DHT22;4642;51.364;6.788;2024-02-23T14:29:08;10.00;1.00
9215;DHT22;4642;51.364;6.788;2024-02-23T14:31:33;10.10;99.90
9215;DHT22;4642;51.364;6.788;2024-02-23T14:33:59;10.10;99.90
9215;DHT22;4642;51.364;6.788;2024-02-23T14:36:25;10.10;99.90
9215;DHT22;4642;51.364;6.788;2024-02-23T14:38:51;10.00;99.90
9215;DHT22;4642;51.364;6.788;2024-02-23T14:41:17;10.10;1.00
9215;DHT22;4642;51.364;6.788;2024-02-23T14:43:42;10.00;99.90
9215;DHT22;4642;51.364;6.788;2024-02-23T14:46:09;10.00;99.90
9215;DHT22;4642;51.364;6.788;2024-02-23T14:48:34;10.00;1.00
9215;DHT22;4642;51.364;6.788;2024-02-23T14:51:00;10.00;1.00
9215;DHT22;4642;51.364;6.788;2024-02-23T14:53:29;10.00;99.90
9215;DHT22;4642;51.364;6.788;2024-02-23T14:55:54;10.00;1.00
9215;DHT22;4642;51.364;6.788;2024-02-23T14:58:20;9.90;1.00
9215;DHT22;4642;51.364;6.788;2024-02-23T15:00:45;9.80;1.00
9215;DHT22;4642;51.364;6.788;2024-02-23T15:03:12;9.70;1.00
9215;DHT22;4642;51.364;6.788;2024-02-23T15:05:38;9.70;1.00
9215;DHT22;4642;51.364;6.788;2024-02-23T15:08:03;9.60;1.00
9215;DHT22;4642;51.364;6.788;2024-02-23T15:10:29;9.60;1.00
9215;DHT22;4642;51.364;6.788;2024-02-23T15:12:55;9.50;1.00
9215;DHT22;4642;51.364;6.788;2024-02-23T15:15:21;9.50;1.00
9215;DHT22;4642;51.364;6.788;2024-02-23T15:17:46;9.40;1.00
9215;DHT22;4642;51.364;6.788;2024-02-23T15:20:14;9.40;1.00
9215;DHT22;4642;51.364;6.788;2024-02-23T15:22:39;9.30;1.00
9215;DHT22;4642;51.364;6.788;2024-02-23T15:25:08;9.20;99.90
9215;DHT22;4642;51.364;6.788;2024-02-23T15:27:34;8.10;99.90
9215;DHT22;4642;51.364;6.788;2024-02-23T15:30:00;7.70;1.00
9215;DHT22;4642;51.364;6.788;2024-02-23T15:32:25;7.60;1.00
9215;DHT22;4642;51.364;6.788;2024-02-23T15:34:51;7.60;1.00
9215;DHT22;4642;51.364;6.788;2024-02-23T15:37:16;7.60;1.00
9215;DHT22;4642;51.364;6.788;2024-02-23T15:39:42;7.60;1.00
9215;DHT22;4642;51.364;6.788;2024-02-23T15:42:08;7.50;1.00
9215;DHT22;4642;51.364;6.788;2024-02-23T15:44:34;7.60;1.00
9215;DHT22;4642;51.364;6.788;2024-02-23T15:46:59;7.50;1.00
9215;DHT22;4642;51.364;6.788;2024-02-23T15:49:25;7.50;1.00
9215;DHT22;4642;51.364;6.788;2024-02-23T15:51:50;7.50;1.00
9215;DHT22;4642;51.364;6.788;2024-02-23T15:54:16;7.60;1.00
9215;DHT22;4642;51.364;6.788;2024-02-23T15:56:42;7.60;1.00
9215;DHT22;4642;51.364;6.788;2024-02-23T15:59:07;7.50;1.00
9215;DHT22;4642;51.364;6.788;2024-02-23T16:01:37;7.50;1.00
9215;DHT22;4642;51.364;6.788;2024-02-23T16:04:03;7.50;1.00
9215;DHT22;4642;51.364;6.788;2024-02-23T16:06:29;7.60;1.00
9215;DHT22;4642;51.364;6.788;2024-02-23T16:08:59;7.60;1.00
9215;DHT22;4642;51.364;6.788;2024-02-23T16:11:25;7.60;1.00
9215;DHT22;4642;51.364;6.788;2024-02-23T16:13:50;7.50;1.00
9215;DHT22;4642;51.364;6.788;2024-02-23T16:16:16;7.60;1.00
9215;DHT22;4642;51.364;6.788;2024-02-23T16:18:42;7.50;1.00
9215;DHT22;4642;51.364;6.788;2024-02-23T16:21:08;7.50;1.00
9215;DHT22;4642;51.364;6.788;2024-02-23T16:23:35;7.60;1.00